createdAt,value
2022-12-06T00:01:42.564Z,3.01
2022-12-06T00:04:14.168Z,3.19
2022-12-06T00:06:48.305Z,3.04
2022-12-06T00:09:19.784Z,3.20
2022-12-06T00:11:48.620Z,3.17
2022-12-06T00:14:17.352Z,3.00
2022-12-06T00:16:46.148Z,3.06
2022-12-06T00:19:15.567Z,3.17
2022-12-06T00:21:47.405Z,3.08
2022-12-06T00:24:19.114Z,3.10
2022-12-06T00:26:49.447Z,3.14
2022-12-06T00:29:20.469Z,3.03
2022-12-06T00:31:53.007Z,2.85
2022-12-06T00:34:22.903Z,2.83
2022-12-06T00:36:53.150Z,2.91
2022-12-06T00:39:22.254Z,3.03
2022-12-06T00:41:53.098Z,3.00
2022-12-06T00:44:22.178Z,2.92
2022-12-06T00:46:50.682Z,2.98
2022-12-06T00:49:19.321Z,2.95
2022-12-06T00:51:48.128Z,2.98
2022-12-06T00:54:18.269Z,3.01
2022-12-06T00:56:46.881Z,2.95
2022-12-06T00:59:15.185Z,2.85
2022-12-06T01:01:43.584Z,3.02
2022-12-06T01:04:12.140Z,2.90
2022-12-06T01:06:40.770Z,2.81
2022-12-06T01:09:11.988Z,2.92
2022-12-06T01:11:42.114Z,2.96
2022-12-06T01:14:10.794Z,2.84
2022-12-06T01:16:40.621Z,2.82
2022-12-06T01:19:10.226Z,2.67
2022-12-06T01:21:38.832Z,2.75
2022-12-06T01:24:07.479Z,2.65
2022-12-06T01:26:36.658Z,2.82
2022-12-06T01:29:07.048Z,2.62
2022-12-06T01:31:39.117Z,2.75
2022-12-06T01:34:09.039Z,2.81
2022-12-06T01:36:37.679Z,2.85
2022-12-06T01:39:11.543Z,2.65
2022-12-06T01:41:40.408Z,2.59
2022-12-06T01:44:41.913Z,2.79
2022-12-06T01:47:17.275Z,2.63
2022-12-06T01:49:51.584Z,2.69
2022-12-06T01:52:20.703Z,2.61
2022-12-06T01:54:49.067Z,2.76
2022-12-06T01:57:19.177Z,2.84
2022-12-06T01:59:50.381Z,2.84
2022-12-06T02:02:20.800Z,2.66
2022-12-06T02:04:50.141Z,2.74
2022-12-06T02:07:19.210Z,2.59
2022-12-06T02:09:48.673Z,2.75
2022-12-06T02:12:18.732Z,2.86
2022-12-06T02:14:54.191Z,2.77
2022-12-06T02:17:37.596Z,2.49
2022-12-06T02:20:14.521Z,2.49
2022-12-06T02:23:06.600Z,2.51
2022-12-06T02:25:54.846Z,2.71
2022-12-06T02:28:45.233Z,2.60
2022-12-06T02:31:24.884Z,2.65
2022-12-06T02:34:00.175Z,2.57
2022-12-06T02:36:34.276Z,2.54
2022-12-06T02:39:09.920Z,2.52
2022-12-06T02:41:42.493Z,2.62
2022-12-06T02:44:18.615Z,2.52
2022-12-06T02:46:51.255Z,2.59
2022-12-06T02:49:20.976Z,2.62
2022-12-06T02:51:50.761Z,2.62
2022-12-06T02:54:21.442Z,2.51
2022-12-06T02:56:50.110Z,2.56
2022-12-06T02:59:18.375Z,2.45
2022-12-06T03:01:52.347Z,2.50
2022-12-06T03:04:46.700Z,2.52
2022-12-06T03:07:29.075Z,2.45
2022-12-06T03:10:12.192Z,2.46
2022-12-06T03:12:44.436Z,2.43
2022-12-06T03:15:18.418Z,2.40
2022-12-06T03:17:55.391Z,2.44
2022-12-06T03:20:42.974Z,2.43
2022-12-06T03:23:15.179Z,2.46
2022-12-06T03:25:46.366Z,2.42
2022-12-06T03:28:17.426Z,2.53
2022-12-06T03:30:49.795Z,2.26
2022-12-06T03:33:29.672Z,2.36
2022-12-06T03:36:00.019Z,2.29
2022-12-06T03:38:34.362Z,2.29
2022-12-06T03:41:06.704Z,2.35
2022-12-06T03:43:35.163Z,2.45
2022-12-06T03:46:08.667Z,2.50
2022-12-06T03:48:49.577Z,2.50
2022-12-06T03:51:23.607Z,2.59
2022-12-06T03:53:55.036Z,2.51
2022-12-06T03:56:25.132Z,2.58
2022-12-06T03:58:53.470Z,2.42
2022-12-06T04:01:21.936Z,2.45
2022-12-06T04:03:52.554Z,2.55
2022-12-06T04:06:20.731Z,2.61
2022-12-06T04:08:49.630Z,2.67
2022-12-06T04:11:17.878Z,2.58
2022-12-06T04:13:46.354Z,2.65
2022-12-06T04:16:32.698Z,2.68
2022-12-06T04:19:02.951Z,2.57
2022-12-06T04:21:48.772Z,2.68
2022-12-06T04:24:17.589Z,2.64
2022-12-06T04:26:46.845Z,2.38
2022-12-06T04:29:33.660Z,2.57
2022-12-06T04:32:19.460Z,2.37
2022-12-06T04:35:06.828Z,2.34
2022-12-06T04:37:52.800Z,2.49
2022-12-06T04:40:21.991Z,2.27
2022-12-06T04:43:07.529Z,2.48
2022-12-06T04:45:35.731Z,2.57
2022-12-06T04:48:03.879Z,2.49
2022-12-06T04:50:34.191Z,2.50
2022-12-06T04:53:04.324Z,2.42
2022-12-06T04:55:35.899Z,2.59
2022-12-06T04:58:04.516Z,2.34
2022-12-06T05:00:32.626Z,2.40
2022-12-06T05:03:01.576Z,2.53
2022-12-06T05:05:30.428Z,2.66
2022-12-06T05:08:00.858Z,2.73
2022-12-06T05:10:29.012Z,2.63
2022-12-06T05:12:58.048Z,2.38
2022-12-06T05:15:29.308Z,2.48
2022-12-06T05:17:58.378Z,2.46
2022-12-06T05:20:27.951Z,2.50
2022-12-06T05:22:57.685Z,2.41
2022-12-06T05:25:27.242Z,2.51
2022-12-06T05:27:55.382Z,2.65
2022-12-06T05:30:23.570Z,2.66
2022-12-06T05:32:56.795Z,2.68
2022-12-06T05:35:25.546Z,2.69
2022-12-06T05:37:54.351Z,2.65
2022-12-06T05:40:23.383Z,2.75
2022-12-06T05:42:57.418Z,2.57
2022-12-06T05:45:25.903Z,2.58
2022-12-06T05:47:54.133Z,2.54
2022-12-06T05:50:22.250Z,2.62
2022-12-06T05:52:50.662Z,2.55
2022-12-06T05:55:19.157Z,2.55
2022-12-06T05:57:47.956Z,2.62
2022-12-06T06:00:20.156Z,2.68
2022-12-06T06:02:50.152Z,2.73
2022-12-06T06:05:19.011Z,2.68
2022-12-06T06:07:47.722Z,2.72
2022-12-06T06:10:17.091Z,2.77
2022-12-06T06:12:46.264Z,2.72
2022-12-06T06:15:15.549Z,2.66
2022-12-06T06:17:45.876Z,2.68
2022-12-06T06:20:15.234Z,2.62
2022-12-06T06:22:43.978Z,2.59
2022-12-06T06:25:12.823Z,2.66
2022-12-06T06:27:41.041Z,2.69
2022-12-06T06:30:15.597Z,2.67
2022-12-06T06:32:45.512Z,2.64
2022-12-06T06:35:19.901Z,2.59
2022-12-06T06:37:48.414Z,2.51
2022-12-06T06:40:17.151Z,2.42
2022-12-06T06:42:46.229Z,2.63
2022-12-06T06:45:15.334Z,2.43
2022-12-06T06:47:45.892Z,2.52
2022-12-06T06:50:15.154Z,2.50
2022-12-06T06:52:43.593Z,2.37
2022-12-06T06:55:12.124Z,2.48
2022-12-06T06:57:41.474Z,2.53
2022-12-06T07:00:11.645Z,2.33
2022-12-06T07:02:40.524Z,2.56
2022-12-06T07:05:11.821Z,2.53
2022-12-06T07:07:40.292Z,2.52
2022-12-06T07:10:10.081Z,2.60
2022-12-06T07:12:40.017Z,2.62
2022-12-06T07:15:09.468Z,2.65
2022-12-06T07:17:37.970Z,2.67
2022-12-06T07:20:07.885Z,2.67
2022-12-06T07:22:38.135Z,2.70
2022-12-06T07:25:07.292Z,2.66
2022-12-06T07:27:36.963Z,2.64
2022-12-06T07:30:06.967Z,2.70
2022-12-06T07:32:37.339Z,2.63
2022-12-06T07:35:06.637Z,2.63
2022-12-06T07:37:34.678Z,2.65
2022-12-06T07:40:08.110Z,2.71
2022-12-06T07:42:53.171Z,2.52
2022-12-06T07:45:21.794Z,2.54
2022-12-06T07:47:50.245Z,2.52
2022-12-06T07:50:20.585Z,2.49
2022-12-06T07:52:52.013Z,2.37
2022-12-06T07:55:22.317Z,2.50
2022-12-06T07:57:50.775Z,2.43
2022-12-06T08:00:19.560Z,2.58
2022-12-06T08:02:47.859Z,2.63
2022-12-06T08:05:19.517Z,2.58
2022-12-06T08:07:49.588Z,2.48
2022-12-06T08:10:22.979Z,2.55
2022-12-06T08:12:51.301Z,2.55
2022-12-06T08:15:19.462Z,2.47
2022-12-06T08:17:47.672Z,2.53
2022-12-06T08:20:16.940Z,2.57
2022-12-06T08:22:48.024Z,2.58
2022-12-06T08:25:16.851Z,2.66
2022-12-06T08:27:46.762Z,2.65
2022-12-06T08:30:17.703Z,2.75
2022-12-06T08:32:46.106Z,2.87
2022-12-06T08:35:14.520Z,2.63
2022-12-06T08:37:42.911Z,2.93
2022-12-06T08:40:11.886Z,2.85
2022-12-06T08:42:42.130Z,2.90
2022-12-06T08:45:13.248Z,2.98
2022-12-06T08:47:42.996Z,2.79
2022-12-06T08:50:11.978Z,2.95
2022-12-06T08:52:41.449Z,2.94
2022-12-06T08:55:10.528Z,3.04
2022-12-06T08:57:39.018Z,3.09
2022-12-06T09:00:09.848Z,3.01
2022-12-06T09:02:42.135Z,3.02
2022-12-06T09:05:12.079Z,3.16
2022-12-06T09:07:40.568Z,3.15
2022-12-06T09:10:10.253Z,3.18
2022-12-06T09:12:38.633Z,3.17
2022-12-06T09:15:08.226Z,3.25
2022-12-06T09:17:37.713Z,3.23
2022-12-06T09:20:10.219Z,3.25
2022-12-06T09:22:38.943Z,3.28
2022-12-06T09:25:07.730Z,3.32
2022-12-06T09:27:36.055Z,3.26
2022-12-06T09:30:06.478Z,3.26
2022-12-06T09:32:35.884Z,3.29
2022-12-06T09:35:04.519Z,3.25
2022-12-06T09:37:36.228Z,3.41
2022-12-06T09:40:13.652Z,3.31
2022-12-06T09:43:05.363Z,3.38
2022-12-06T09:45:57.428Z,3.27
2022-12-06T09:48:57.183Z,3.35
2022-12-06T09:51:45.035Z,3.40
2022-12-06T09:54:26.938Z,3.47
2022-12-06T09:57:01.616Z,3.51
2022-12-06T09:59:39.026Z,3.43
2022-12-06T10:02:39.881Z,3.57
2022-12-06T10:05:32.532Z,3.62
2022-12-06T10:08:10.469Z,3.65
2022-12-06T10:10:56.373Z,3.76
2022-12-06T10:13:39.795Z,3.76
2022-12-06T10:16:20.958Z,3.85
2022-12-06T10:19:03.850Z,3.79
2022-12-06T10:21:45.277Z,3.77
2022-12-06T10:24:27.546Z,3.82
2022-12-06T10:27:09.152Z,3.77
2022-12-06T10:29:53.435Z,3.81
2022-12-06T10:32:36.016Z,3.85
2022-12-06T10:35:17.825Z,3.99
2022-12-06T10:38:00.708Z,3.91
2022-12-06T10:40:33.169Z,3.98
2022-12-06T10:43:13.387Z,4.05
2022-12-06T10:46:08.899Z,4.10
2022-12-06T10:48:45.069Z,4.06
2022-12-06T10:51:18.623Z,4.08
2022-12-06T10:53:54.071Z,4.20
2022-12-06T10:56:28.668Z,4.07
2022-12-06T10:59:02.875Z,4.24
2022-12-06T11:01:37.165Z,4.27
2022-12-06T11:04:16.829Z,4.16
2022-12-06T11:06:54.694Z,4.34
2022-12-06T11:09:32.169Z,4.22
2022-12-06T11:12:01.124Z,4.27
2022-12-06T11:14:38.998Z,4.41
2022-12-06T11:17:23.447Z,4.23
2022-12-06T11:19:54.892Z,4.23
2022-12-06T11:22:34.251Z,4.25
2022-12-06T11:25:10.823Z,4.24
2022-12-06T11:27:46.694Z,4.39
2022-12-06T11:30:21.396Z,4.41
2022-12-06T11:32:55.959Z,4.46
2022-12-06T11:35:27.230Z,4.50
2022-12-06T11:38:00.244Z,4.54
2022-12-06T11:40:33.390Z,4.48
2022-12-06T11:43:04.648Z,4.44
2022-12-06T11:45:36.303Z,4.52
2022-12-06T11:48:14.802Z,4.52
2022-12-06T11:50:44.181Z,4.53
2022-12-06T11:53:18.857Z,4.64
2022-12-06T11:55:50.375Z,4.65
2022-12-06T11:58:28.245Z,4.67
2022-12-06T12:01:01.789Z,4.58
2022-12-06T12:03:32.732Z,4.54
2022-12-06T12:06:22.969Z,4.69
2022-12-06T12:08:59.298Z,4.69
2022-12-06T12:11:30.739Z,4.74
2022-12-06T12:14:03.805Z,4.70
2022-12-06T12:16:40.594Z,4.68
2022-12-06T12:19:33.251Z,4.62
2022-12-06T12:22:15.327Z,4.57
2022-12-06T12:27:47.976Z,4.68
2022-12-06T12:30:22.610Z,4.70
2022-12-06T12:32:54.709Z,4.82
2022-12-06T12:35:29.033Z,4.74
2022-12-06T12:38:00.047Z,4.79
2022-12-06T12:40:31.556Z,4.90
2022-12-06T12:43:04.832Z,4.79
2022-12-06T12:45:33.948Z,4.88
2022-12-06T12:48:05.221Z,4.97
2022-12-06T12:50:34.193Z,4.88
2022-12-06T12:53:02.822Z,4.90
2022-12-06T12:55:32.887Z,4.98
2022-12-06T12:58:01.863Z,4.94
2022-12-06T13:00:34.651Z,4.78
2022-12-06T13:03:34.924Z,4.66
2022-12-06T13:06:01.772Z,4.74
2022-12-06T13:08:34.978Z,4.72
2022-12-06T13:11:06.595Z,4.64
2022-12-06T13:13:41.869Z,4.74
2022-12-06T13:16:15.558Z,4.80
2022-12-06T13:18:48.792Z,4.77
2022-12-06T13:21:22.636Z,4.80
2022-12-06T13:23:54.343Z,4.62
2022-12-06T13:26:28.778Z,4.74
2022-12-06T13:29:01.448Z,4.72
2022-12-06T13:31:36.715Z,4.65
2022-12-06T13:34:18.592Z,4.56
2022-12-06T13:36:47.238Z,4.55
2022-12-06T13:39:38.347Z,4.54
2022-12-06T13:42:22.158Z,4.41
2022-12-06T13:44:56.212Z,4.37
2022-12-06T13:47:53.526Z,4.46
2022-12-06T13:50:55.702Z,4.45
2022-12-06T13:53:25.063Z,4.38
2022-12-06T13:55:59.731Z,4.53
2022-12-06T13:58:55.007Z,4.55
2022-12-06T14:01:45.202Z,4.52
2022-12-06T14:09:42.020Z,4.51
2022-12-06T14:12:19.253Z,4.49
2022-12-06T14:14:59.930Z,4.58
2022-12-06T14:18:01.711Z,4.53
2022-12-06T14:20:31.799Z,4.50
2022-12-06T14:23:01.625Z,4.54
2022-12-06T14:25:32.755Z,4.52
2022-12-06T14:28:08.040Z,4.50
2022-12-06T14:30:37.180Z,4.48
2022-12-06T14:33:18.869Z,4.49
2022-12-06T14:35:51.907Z,4.55
2022-12-06T14:38:28.118Z,4.52
2022-12-06T14:41:14.518Z,4.43
2022-12-06T14:43:47.629Z,4.53
2022-12-06T14:46:19.137Z,4.43
2022-12-06T14:49:05.393Z,4.43
2022-12-06T14:51:41.830Z,4.41
2022-12-06T14:54:35.269Z,4.46
2022-12-06T14:57:05.062Z,4.39
2022-12-06T15:00:13.139Z,4.38
2022-12-06T15:02:24.602Z,4.41
2022-12-06T15:04:53.905Z,4.49
2022-12-06T15:07:34.059Z,4.42
2022-12-06T15:10:19.583Z,4.41
2022-12-06T15:12:55.904Z,4.48
2022-12-06T15:15:37.602Z,4.41
2022-12-06T15:18:22.931Z,4.46
2022-12-06T15:20:53.780Z,4.43
2022-12-06T15:23:38.394Z,4.35
2022-12-06T15:26:12.613Z,4.29
2022-12-06T15:28:41.497Z,4.36
2022-12-06T15:31:18.576Z,4.34
2022-12-06T15:33:47.780Z,4.34
2022-12-06T15:36:19.672Z,4.34
2022-12-06T15:38:49.494Z,4.34
2022-12-06T15:41:22.230Z,4.27
2022-12-06T15:43:51.083Z,4.30
2022-12-06T15:46:24.055Z,4.29
2022-12-06T15:48:53.188Z,4.21
2022-12-06T15:51:25.466Z,4.27
2022-12-06T15:53:55.531Z,4.21
2022-12-06T15:56:29.070Z,4.18
2022-12-06T15:58:58.129Z,4.23
2022-12-06T16:01:29.262Z,4.21
2022-12-06T16:03:58.790Z,4.22
2022-12-06T16:06:29.545Z,4.21
2022-12-06T16:08:59.346Z,4.18
2022-12-06T16:11:31.976Z,4.25
2022-12-06T16:14:00.523Z,4.21
2022-12-06T16:16:32.367Z,4.16
2022-12-06T16:19:03.044Z,4.22
2022-12-06T16:21:33.444Z,4.23
2022-12-06T16:24:13.061Z,4.20
2022-12-06T16:26:46.053Z,4.19
2022-12-06T16:29:25.669Z,4.14
2022-12-06T16:31:54.718Z,4.08
2022-12-06T16:34:27.579Z,4.15
2022-12-06T16:36:58.788Z,4.17
2022-12-06T16:39:27.508Z,4.21
2022-12-06T16:41:57.623Z,4.18
2022-12-06T16:44:26.198Z,4.24
2022-12-06T16:46:55.043Z,4.22
2022-12-06T16:52:14.383Z,4.26
2022-12-06T16:54:42.912Z,4.22
2022-12-06T16:57:14.847Z,4.22
2022-12-06T16:59:43.613Z,4.21
2022-12-06T17:02:26.672Z,4.18
2022-12-06T17:04:55.956Z,4.23
2022-12-06T17:07:24.699Z,4.16
2022-12-06T17:09:53.257Z,4.29
2022-12-06T17:12:27.261Z,4.31
2022-12-06T17:14:56.715Z,4.22
2022-12-06T17:17:31.741Z,4.26
2022-12-06T17:20:01.968Z,4.20
2022-12-06T17:22:31.650Z,4.15
2022-12-06T17:25:02.054Z,4.21
2022-12-06T17:27:32.270Z,4.23
2022-12-06T17:30:01.936Z,4.20
2022-12-06T17:32:30.952Z,4.20
2022-12-06T17:34:59.317Z,4.08
2022-12-06T17:37:28.168Z,4.20
2022-12-06T17:39:56.961Z,4.20
2022-12-06T17:42:42.976Z,4.22
2022-12-06T17:45:14.306Z,4.23
2022-12-06T17:47:43.094Z,4.17
2022-12-06T17:50:12.508Z,4.21
2022-12-06T17:52:40.670Z,4.28
2022-12-06T17:55:10.851Z,4.25
2022-12-06T17:57:40.082Z,4.18
2022-12-06T18:00:09.812Z,4.22
2022-12-06T18:02:40.068Z,4.23
2022-12-06T18:05:09.780Z,4.11
2022-12-06T18:07:38.369Z,4.05
2022-12-06T18:10:09.494Z,4.02
2022-12-06T18:12:38.321Z,4.12
2022-12-06T18:15:28.707Z,4.08
2022-12-06T18:17:59.511Z,4.05
2022-12-06T18:20:29.147Z,4.07
2022-12-06T18:22:58.187Z,3.99
2022-12-06T18:25:26.985Z,4.05
2022-12-06T18:27:55.590Z,4.01
2022-12-06T18:30:24.819Z,3.96
2022-12-06T18:32:53.532Z,3.93
2022-12-06T18:35:25.230Z,3.91
2022-12-06T18:37:54.106Z,3.85
2022-12-06T18:40:22.600Z,3.82
2022-12-06T18:42:53.156Z,3.84
2022-12-06T18:45:21.590Z,3.76
2022-12-06T18:47:49.724Z,3.80
2022-12-06T18:50:19.463Z,3.73
2022-12-06T18:52:49.646Z,3.71
2022-12-06T18:55:18.064Z,3.50
2022-12-06T18:57:46.280Z,3.50
2022-12-06T19:00:17.127Z,3.57
2022-12-06T19:02:45.798Z,3.57
2022-12-06T19:05:27.733Z,3.65
2022-12-06T19:08:06.228Z,3.61
2022-12-06T19:10:35.597Z,3.54
2022-12-06T19:13:05.843Z,3.56
2022-12-06T19:15:36.366Z,3.53
2022-12-06T19:18:08.169Z,3.36
2022-12-06T19:20:36.689Z,3.29
2022-12-06T19:23:06.534Z,3.08
2022-12-06T19:25:35.252Z,3.05
2022-12-06T19:28:03.704Z,3.11
2022-12-06T19:30:35.220Z,3.20
2022-12-06T19:33:03.959Z,3.13
2022-12-06T19:35:32.117Z,3.00
2022-12-06T19:38:00.847Z,2.75
2022-12-06T19:40:30.903Z,2.88
2022-12-06T19:43:17.319Z,2.69
2022-12-06T19:45:45.617Z,2.81
2022-12-06T19:48:14.729Z,2.83
2022-12-06T19:50:43.231Z,2.80
2022-12-06T19:53:12.250Z,2.72
2022-12-06T19:55:47.378Z,2.77
2022-12-06T19:58:15.460Z,2.79
2022-12-06T20:00:45.205Z,2.81
2022-12-06T20:03:13.720Z,2.55
2022-12-06T20:05:43.027Z,2.50
2022-12-06T20:08:11.555Z,2.65
2022-12-06T20:10:44.250Z,2.53
2022-12-06T20:13:13.804Z,2.52
2022-12-06T20:15:42.718Z,2.66
2022-12-06T20:18:11.210Z,2.70
2022-12-06T20:20:41.044Z,2.75
2022-12-06T20:23:10.713Z,2.71
2022-12-06T20:25:39.345Z,2.84
2022-12-06T20:28:13.479Z,2.82
2022-12-06T20:30:43.070Z,2.80
2022-12-06T20:33:11.587Z,2.84
2022-12-06T20:35:40.688Z,2.94
2022-12-06T20:38:09.286Z,2.86
2022-12-06T20:40:39.386Z,2.98
2022-12-06T20:43:09.557Z,2.97
2022-12-06T20:45:38.024Z,2.84
2022-12-06T20:48:06.732Z,2.92
2022-12-06T20:50:35.187Z,3.02
2022-12-06T20:53:03.888Z,2.93
2022-12-06T20:55:32.031Z,2.96
2022-12-06T20:58:00.739Z,2.96
2022-12-06T21:00:31.167Z,2.90
2022-12-06T21:02:59.457Z,2.86
2022-12-06T21:05:27.970Z,2.90
2022-12-06T21:07:56.223Z,2.83
2022-12-06T21:10:24.948Z,2.94
2022-12-06T21:12:53.882Z,2.95
2022-12-06T21:15:22.763Z,2.96
2022-12-06T21:17:53.282Z,2.94
2022-12-06T21:20:24.610Z,2.88
2022-12-06T21:22:52.738Z,2.82
2022-12-06T21:25:21.524Z,2.63
2022-12-06T21:27:51.852Z,2.77
2022-12-06T21:30:20.411Z,2.77
2022-12-06T21:32:48.503Z,2.77
2022-12-06T21:35:18.803Z,2.67
2022-12-06T21:37:48.441Z,2.63
2022-12-06T21:40:16.820Z,2.64
2022-12-06T21:42:45.003Z,2.60
2022-12-06T21:45:13.143Z,2.60
2022-12-06T21:47:41.474Z,2.64
2022-12-06T21:50:10.555Z,2.67
2022-12-06T21:52:40.891Z,2.73
2022-12-06T21:55:12.461Z,2.65
2022-12-06T21:57:41.281Z,2.64
2022-12-06T22:00:10.715Z,2.67
2022-12-06T22:02:39.414Z,2.66
2022-12-06T22:05:08.380Z,2.76
2022-12-06T22:07:37.388Z,2.83
2022-12-06T22:10:09.495Z,2.63
2022-12-06T22:12:38.859Z,2.41
2022-12-06T22:15:08.159Z,2.38
2022-12-06T22:17:36.788Z,2.23
2022-12-06T22:20:05.785Z,2.51
2022-12-06T22:22:37.464Z,2.38
2022-12-06T22:25:09.346Z,2.39
2022-12-06T22:27:37.819Z,2.24
2022-12-06T22:30:07.693Z,2.18
2022-12-06T22:32:38.415Z,2.50
2022-12-06T22:35:07.912Z,2.58
2022-12-06T22:37:36.360Z,2.55
2022-12-06T22:40:05.162Z,2.58
2022-12-06T22:42:38.316Z,2.59
2022-12-06T22:45:10.058Z,2.49
2022-12-06T22:47:38.229Z,2.56
2022-12-06T22:50:08.556Z,2.43
2022-12-06T22:52:40.555Z,2.36
2022-12-06T22:55:09.338Z,2.49
2022-12-06T22:57:39.150Z,2.51
2022-12-06T23:00:10.368Z,2.62
2022-12-06T23:02:38.461Z,2.60
2022-12-06T23:05:07.782Z,2.74
2022-12-06T23:07:36.568Z,2.73
2022-12-06T23:10:05.896Z,2.81
2022-12-06T23:12:43.481Z,3.02
2022-12-06T23:15:12.576Z,3.00
2022-12-06T23:17:40.738Z,2.89
2022-12-06T23:20:10.236Z,2.68
2022-12-06T23:22:39.341Z,2.62
2022-12-06T23:25:08.943Z,2.65
2022-12-06T23:27:38.805Z,2.72
2022-12-06T23:30:09.600Z,2.79
2022-12-06T23:32:37.721Z,2.85
2022-12-06T23:35:07.820Z,2.79
2022-12-06T23:37:36.534Z,2.67
2022-12-06T23:40:05.271Z,2.58
2022-12-06T23:42:36.182Z,2.70
2022-12-06T23:45:07.273Z,2.76
2022-12-06T23:47:35.915Z,2.88
2022-12-06T23:50:04.456Z,2.83
2022-12-06T23:52:35.484Z,2.85
2022-12-06T23:55:03.646Z,2.85
2022-12-06T23:57:32.002Z,2.98
